Time;durP1;ratioP1;P1;durP2;ratioP2;P2;SDS_P1;SDS_P2;PMS_P1;PMS_P2;Temp;Humidity;BMP_temperature;BMP_pressure;BME280_temperature;BME280_humidity;BME280_pressure;Samples;Min_cycle;Max_cycle;Signal;HPM_P1;HPM_P2
2023/01/23 00:02:26;;;;;;;;;;;1.20;99.90;;;;;;15202277;23;20399;-36
2023/01/23 00:08:29;;;;;;;79.60;16.35;;;1.20;99.90;;;;;;15200000;23;19979;-37
2023/01/23 00:14:31;;;;;;;255.30;23.08;;;1.20;99.90;;;;;;15194731;23;20081;-36
2023/01/23 00:20:35;;;;;;;280.67;24.10;;;1.20;99.90;;;;;;15203859;23;20636;-37
2023/01/23 00:26:37;;;;;;;202.70;19.98;;;1.20;99.90;;;;;;15199718;23;20470;-36
2023/01/23 00:32:39;;;;;;;179.48;18.80;;;1.20;99.90;;;;;;15202822;23;20037;-37
2023/01/23 00:38:41;;;;;;;179.05;19.83;;;1.20;99.90;;;;;;15200481;23;20030;-37
2023/01/23 00:44:43;;;;;;;430.40;30.45;;;1.20;99.90;;;;;;15199836;23;20157;-37
2023/01/23 00:50:45;;;;;;;318.83;23.00;;;1.20;99.90;;;;;;15199821;23;20503;-36
2023/01/23 00:56:47;;;;;;;296.98;24.25;;;1.20;99.90;;;;;;15201292;23;20037;-37
2023/01/23 01:02:49;;;;;;;248.00;23.48;;;1.20;99.90;;;;;;15169489;23;20519;-37
2023/01/23 01:08:51;;;;;;;275.27;24.45;;;1.10;99.90;;;;;;15195874;23;20028;-37
2023/01/23 01:14:53;;;;;;;433.45;27.30;;;1.20;99.90;;;;;;15200877;23;20112;-37
2023/01/23 01:20:56;;;;;;;395.75;25.13;;;1.30;99.90;;;;;;15206012;23;20092;-37
2023/01/23 01:26:58;;;;;;;318.02;23.70;;;1.20;99.90;;;;;;15204432;23;20022;-37
2023/01/23 01:32:59;;;;;;;406.80;26.08;;;1.20;99.90;;;;;;15203996;23;20032;-36
2023/01/23 01:39:01;;;;;;;486.52;31.95;;;1.20;99.90;;;;;;15204558;23;20057;-37
2023/01/23 01:45:04;;;;;;;150.43;18.45;;;1.20;99.90;;;;;;15204902;23;20030;-37
2023/01/23 01:51:36;;;;;;;149.32;19.15;;;1.20;99.90;;;;;;15201536;23;20042;-37
2023/01/23 01:57:42;;;;;;;158.38;22.35;;;1.30;99.90;;;;;;15202405;23;20029;-37
2023/01/23 02:03:45;;;;;;;115.25;18.20;;;1.30;99.90;;;;;;15173582;23;20028;-35
2023/01/23 02:09:48;;;;;;;100.75;18.27;;;1.30;99.90;;;;;;15203059;23;20351;-36
2023/01/23 02:15:51;;;;;;;130.13;19.42;;;1.30;99.90;;;;;;15175506;23;20117;-37
2023/01/23 02:22:05;;;;;;;144.73;20.95;;;1.30;99.90;;;;;;15201611;23;20478;-37
2023/01/23 02:28:08;;;;;;;68.18;17.38;;;1.40;99.90;;;;;;15204690;23;20153;-36
2023/01/23 02:34:12;;;;;;;127.50;19.93;;;1.40;99.90;;;;;;15175212;23;20106;-35
2023/01/23 02:40:14;;;;;;;57.30;16.15;;;1.40;99.90;;;;;;15203928;23;20030;-36
2023/01/23 02:46:19;;;;;;;91.53;19.52;;;1.40;99.90;;;;;;15176656;23;20097;-36
2023/01/23 02:52:22;;;;;;;63.58;16.25;;;1.30;99.90;;;;;;15197350;23;20026;-35
2023/01/23 03:04:44;;;;;;;65.63;16.45;;;1.40;99.90;;;;;;15180165;23;20026;-36
2023/01/23 03:10:46;;;;;;;63.65;16.52;;;1.30;99.90;;;;;;15202038;23;20018;-36
2023/01/23 03:16:52;;;;;;;50.05;15.68;;;1.30;99.90;;;;;;15203395;23;20104;-36
2023/01/23 03:22:55;;;;;;;42.75;15.48;;;1.30;99.90;;;;;;15202046;23;20029;-36
2023/01/23 03:35:21;;;;;;;35.53;13.80;;;1.30;99.90;;;;;;15201329;23;20032;-37
2023/01/23 03:41:26;;;;;;;32.10;13.30;;;1.30;99.90;;;;;;15193525;23;20108;-36
2023/01/23 03:47:27;;;;;;;34.47;14.23;;;1.30;99.90;;;;;;15201755;23;20021;-37
2023/01/23 03:53:29;;;;;;;30.85;13.00;;;1.30;99.90;;;;;;15199154;23;20499;-37
2023/01/23 03:59:31;;;;;;;36.08;14.15;;;1.30;99.90;;;;;;15204280;23;20084;-36
2023/01/23 04:05:34;;;;;;;37.75;15.55;;;1.30;99.90;;;;;;15199922;23;20048;-37
2023/01/23 04:11:36;;;;;;;35.42;14.68;;;1.30;99.90;;;;;;15202259;23;20022;-37
2023/01/23 04:17:38;;;;;;;33.70;14.45;;;1.30;99.90;;;;;;15199332;23;20076;-36
2023/01/23 04:23:42;;;;;;;33.03;14.75;;;1.30;99.90;;;;;;15199981;23;20026;-37
2023/01/23 04:29:46;;;;;;;31.52;13.55;;;1.30;99.90;;;;;;15200083;23;20018;-37
2023/01/23 04:35:57;;;;;;;37.87;17.00;;;1.30;99.90;;;;;;15196350;23;20026;-36
2023/01/23 04:41:59;;;;;;;49.63;15.50;;;1.30;99.90;;;;;;15173293;23;20100;-37
2023/01/23 04:48:01;;;;;;;51.05;16.17;;;1.40;99.90;;;;;;15202910;23;20021;-36
2023/01/23 04:54:03;;;;;;;43.00;16.75;;;1.40;99.90;;;;;;15202286;23;20034;-36
2023/01/23 05:00:05;;;;;;;47.67;15.95;;;1.40;99.90;;;;;;15204092;23;20219;-37
2023/01/23 05:06:07;;;;;;;39.33;15.05;;;1.40;99.90;;;;;;15202101;23;20045;-37
2023/01/23 05:12:09;;;;;;;46.50;16.55;;;1.40;99.90;;;;;;15204010;23;20028;-36
2023/01/23 05:18:11;;;;;;;44.88;15.77;;;1.40;99.90;;;;;;15203738;23;20128;-36
2023/01/23 05:24:13;;;;;;;43.15;14.98;;;1.40;99.90;;;;;;15204406;23;20029;-36
2023/01/23 05:30:16;;;;;;;52.03;16.65;;;1.40;99.90;;;;;;15205821;23;20044;-37
2023/01/23 05:36:18;;;;;;;57.42;16.80;;;1.40;99.90;;;;;;15177218;23;20022;-37
2023/01/23 05:42:20;;;;;;;61.20;17.33;;;1.40;99.90;;;;;;15200448;23;20026;-37
2023/01/23 05:48:22;;;;;;;63.63;16.17;;;1.40;99.90;;;;;;15202660;23;20057;-36
2023/01/23 05:54:24;;;;;;;124.45;19.02;;;1.40;99.90;;;;;;15199015;23;20030;-36
2023/01/23 06:00:26;;;;;;;161.20;19.70;;;1.30;99.90;;;;;;15205927;23;20033;-37
2023/01/23 06:06:28;;;;;;;62.47;14.50;;;1.30;99.90;;;;;;15204238;23;20022;-36
2023/01/23 06:12:30;;;;;;;212.02;21.30;;;1.30;99.90;;;;;;15202618;23;20057;-36
2023/01/23 06:18:31;;;;;;;173.02;20.27;;;1.40;99.90;;;;;;15204235;23;20031;-36
2023/01/23 06:24:33;;;;;;;72.95;15.25;;;1.40;99.90;;;;;;15202892;23;20026;-36
2023/01/23 06:30:36;;;;;;;342.45;26.55;;;1.40;99.90;;;;;;15199867;23;20022;-36
2023/01/23 06:36:39;;;;;;;151.30;17.50;;;1.40;99.90;;;;;;15200023;23;20026;-36
2023/01/23 06:42:41;;;;;;;208.52;19.95;;;1.40;99.90;;;;;;15200544;23;20334;-36
2023/01/23 06:48:43;;;;;;;298.42;24.25;;;1.40;99.90;;;;;;15200916;23;20343;-36
2023/01/23 06:54:45;;;;;;;126.53;20.83;;;1.40;99.90;;;;;;15176722;23;20029;-36
2023/01/23 07:00:47;;;;;;;84.32;17.13;;;1.40;99.90;;;;;;15200222;23;20026;-36
2023/01/23 07:06:49;;;;;;;142.60;19.58;;;1.40;99.90;;;;;;15200449;23;20338;-36
2023/01/23 07:12:51;;;;;;;111.10;20.13;;;1.40;99.90;;;;;;15203202;23;20018;-36
2023/01/23 07:18:53;;;;;;;141.02;19.65;;;1.40;99.90;;;;;;15200608;23;20026;-36
2023/01/23 07:24:55;;;;;;;93.47;20.13;;;1.40;99.90;;;;;;15202162;23;20534;-36
2023/01/23 07:30:58;;;;;;;94.35;17.27;;;1.40;99.90;;;;;;15196933;23;20018;-36
2023/01/23 07:37:00;;;;;;;119.90;20.13;;;1.40;99.90;;;;;;15193724;23;20026;-36
2023/01/23 07:43:02;;;;;;;60.30;17.30;;;1.40;99.90;;;;;;15198637;23;20129;-36
2023/01/23 07:49:04;;;;;;;56.13;17.02;;;1.50;99.90;;;;;;15196879;23;20102;-36
2023/01/23 07:55:06;;;;;;;57.60;17.30;;;1.50;99.90;;;;;;15195790;23;20062;-37
2023/01/23 08:01:09;;;;;;;63.65;17.92;;;1.40;99.90;;;;;;15197398;23;20466;-37
2023/01/23 08:07:11;;;;;;;59.95;18.13;;;1.40;99.90;;;;;;15198993;23;20022;-37
2023/01/23 08:13:13;;;;;;;64.07;18.27;;;1.50;99.90;;;;;;15201344;23;20096;-36
2023/01/23 08:19:16;;;;;;;65.03;19.15;;;1.40;99.90;;;;;;15172086;23;20352;-36
2023/01/23 08:25:18;;;;;;;69.38;17.70;;;1.50;99.90;;;;;;15194215;23;20104;-36
2023/01/23 08:31:20;;;;;;;51.67;16.08;;;1.50;99.90;;;;;;15197643;23;20025;-36
2023/01/23 08:37:22;;;;;;;59.22;18.50;;;1.50;99.90;;;;;;15185805;23;20030;-36
2023/01/23 08:43:24;;;;;;;54.83;16.95;;;1.50;99.90;;;;;;15196057;23;20471;-36
2023/01/23 08:49:26;;;;;;;53.75;17.00;;;1.60;99.90;;;;;;15196984;23;20033;-36
2023/01/23 08:55:28;;;;;;;54.55;17.38;;;1.60;99.90;;;;;;15195207;23;20150;-36
2023/01/23 09:01:30;;;;;;;49.60;16.95;;;1.60;99.90;;;;;;15175957;23;20161;-36
2023/01/23 09:07:35;;;;;;;47.50;17.25;;;1.70;99.90;;;;;;15194294;23;20152;-36
2023/01/23 09:13:37;;;;;;;43.10;17.13;;;1.70;99.90;;;;;;15196535;23;20141;-36
2023/01/23 09:19:39;;;;;;;36.45;14.75;;;1.80;99.90;;;;;;15200539;23;20343;-36
2023/01/23 09:25:41;;;;;;;34.05;14.82;;;1.80;99.90;;;;;;15170374;23;20336;-36
2023/01/23 09:31:43;;;;;;;34.85;15.48;;;1.80;99.90;;;;;;15197110;23;20078;-36
2023/01/23 09:38:03;;;;;;;32.13;14.25;;;2.00;99.90;;;;;;15200172;23;20026;-37
2023/01/23 09:44:21;;;;;;;25.00;13.30;;;2.00;99.90;;;;;;15173214;23;20037;-37
2023/01/23 09:50:28;;;;;;;27.20;12.60;;;2.00;99.90;;;;;;15198029;23;20089;-37
2023/01/23 09:56:32;;;;;;;28.25;13.73;;;2.00;99.90;;;;;;15198900;23;20353;-36
2023/01/23 10:02:34;;;;;;;27.55;13.32;;;2.00;99.90;;;;;;15203029;23;20121;-37
2023/01/23 10:08:48;;;;;;;26.85;11.98;;;2.20;99.90;;;;;;15202252;23;20025;-37
2023/01/23 10:15:32;;;;;;;23.93;11.70;;;2.20;99.90;;;;;;15204126;23;20569;-36
2023/01/23 10:22:00;;;;;;;22.92;11.98;;;2.30;99.90;;;;;;15139545;23;20030;-37
2023/01/23 10:28:15;;;;;;;20.20;12.02;;;2.20;99.90;;;;;;15200392;23;20025;-37
2023/01/23 10:34:54;;;;;;;22.52;12.40;;;2.30;99.90;;;;;;15196177;23;20026;-37
2023/01/23 10:41:12;;;;;;;22.52;12.15;;;2.10;99.90;;;;;;15196494;23;20343;-37
2023/01/23 10:47:24;;;;;;;22.67;11.80;;;2.10;99.90;;;;;;15194837;23;20077;-37
2023/01/23 10:53:30;;;;;;;24.05;12.00;;;2.20;99.90;;;;;;15197386;23;20029;-37
2023/01/23 10:59:37;;;;;;;27.05;13.48;;;2.30;99.90;;;;;;15199405;23;20048;-36
2023/01/23 11:05:44;;;;;;;30.95;13.63;;;2.20;99.90;;;;;;15197066;23;20029;-36
2023/01/23 11:12:04;;;;;;;33.90;15.23;;;2.20;99.90;;;;;;15201999;23;20018;-37
2023/01/23 11:18:27;;;;;;;28.48;14.10;;;2.30;99.90;;;;;;15199827;23;20022;-37
2023/01/23 11:24:33;;;;;;;31.05;15.13;;;2.30;99.90;;;;;;15170555;23;20052;-37
2023/01/23 11:30:48;;;;;;;28.45;14.85;;;2.30;99.90;;;;;;15196031;23;20025;-37
2023/01/23 11:37:31;;;;;;;27.05;13.68;;;2.30;99.90;;;;;;15194738;23;20045;-37
2023/01/23 11:43:33;;;;;;;27.40;12.90;;;2.20;99.90;;;;;;15168540;23;20025;-37
2023/01/23 11:50:00;;;;;;;26.42;14.35;;;2.20;99.90;;;;;;15195696;23;20050;-37
2023/01/23 11:56:30;;;;;;;25.90;14.00;;;2.30;99.90;;;;;;15199835;23;20036;-37
2023/01/23 12:02:44;;;;;;;34.28;15.48;;;2.40;99.90;;;;;;15199499;23;20041;-37
2023/01/23 12:09:15;;;;;;;38.70;16.83;;;2.40;99.90;;;;;;15171122;23;20459;-37
2023/01/23 12:15:21;;;;;;;35.40;15.63;;;2.30;99.90;;;;;;15196362;23;20033;-36
2023/01/23 12:21:56;;;;;;;38.80;17.50;;;2.30;99.90;;;;;;15200456;23;20026;-37
2023/01/23 12:28:14;;;;;;;33.78;16.73;;;2.30;99.90;;;;;;15136253;23;20065;-36
2023/01/23 12:34:30;;;;;;;32.38;15.65;;;2.40;99.90;;;;;;15191163;23;20033;-37
2023/01/23 12:40:55;;;;;;;30.80;15.32;;;2.50;99.90;;;;;;15194774;23;20108;-37
2023/01/23 12:46:59;;;;;;;33.97;16.65;;;2.50;99.90;;;;;;15194885;23;20392;-36
2023/01/23 12:53:11;;;;;;;35.28;16.25;;;2.40;99.90;;;;;;15196491;23;20022;-37
2023/01/23 12:59:48;;;;;;;38.53;17.67;;;2.50;99.90;;;;;;15196624;23;20030;-37
2023/01/23 13:05:59;;;;;;;36.75;17.55;;;2.50;99.90;;;;;;15201168;23;20469;-37
2023/01/23 13:12:10;;;;;;;33.35;16.13;;;2.50;99.90;;;;;;15203051;23;20309;-37
2023/01/23 13:18:23;;;;;;;36.03;16.48;;;2.50;99.90;;;;;;15200228;23;20025;-36
2023/01/23 13:25:15;;;;;;;38.53;18.40;;;2.40;99.90;;;;;;15196535;23;20124;-37
2023/01/23 13:31:45;;;;;;;39.22;16.65;;;2.30;99.90;;;;;;15201092;23;20028;-37
2023/01/23 13:37:50;;;;;;;39.20;17.02;;;2.20;99.90;;;;;;15192132;23;20033;-37
2023/01/23 13:43:59;;;;;;;35.90;17.52;;;2.20;99.90;;;;;;15188290;23;20034;-37
2023/01/23 13:50:13;;;;;;;43.60;17.80;;;2.20;99.90;;;;;;15198086;23;20081;-37
2023/01/23 13:56:39;;;;;;;38.47;17.38;;;2.20;99.90;;;;;;14834931;24;20039;-36
2023/01/23 14:09:58;;;;;;;38.08;17.63;;;2.20;99.90;;;;;;14496500;24;20030;-37
2023/01/23 14:16:21;;;;;;;38.72;18.05;;;2.20;99.90;;;;;;14436716;24;20050;-36
2023/01/23 14:22:37;;;;;;;37.28;17.40;;;2.20;99.90;;;;;;14307019;24;20526;-37
2023/01/23 14:28:39;;;;;;;36.05;17.52;;;2.20;99.90;;;;;;14494406;24;20022;-37
2023/01/23 14:34:41;;;;;;;31.38;15.38;;;2.10;99.90;;;;;;14610455;24;20034;-37
2023/01/23 14:40:43;;;;;;;31.23;15.80;;;2.00;99.90;;;;;;14859707;23;20038;-36
2023/01/23 14:46:54;;;;;;;35.25;17.17;;;2.00;99.90;;;;;;15104579;23;20018;-37
2023/01/23 14:53:10;;;;;;;31.02;16.02;;;1.90;99.90;;;;;;15197173;23;20053;-36
2023/01/23 14:59:29;;;;;;;32.38;16.05;;;1.90;99.90;;;;;;15200106;23;20030;-37
2023/01/23 15:05:32;;;;;;;34.53;16.67;;;1.80;99.90;;;;;;15189679;23;20033;-36
2023/01/23 15:11:34;;;;;;;33.25;16.42;;;1.90;99.90;;;;;;15198217;23;20029;-37
2023/01/23 15:17:36;;;;;;;33.20;16.58;;;1.80;99.90;;;;;;15194814;23;20036;-36
2023/01/23 15:23:40;;;;;;;33.40;16.35;;;1.80;99.90;;;;;;15200195;23;20077;-36
2023/01/23 15:29:43;;;;;;;31.58;15.50;;;1.80;99.90;;;;;;15191809;23;20025;-37
2023/01/23 15:35:46;;;;;;;35.20;16.50;;;1.80;99.90;;;;;;15193797;23;20344;-36
2023/01/23 15:41:53;;;;;;;27.20;14.50;;;1.80;99.90;;;;;;15193163;23;20519;-37
2023/01/23 15:47:55;;;;;;;28.45;14.80;;;1.80;99.90;;;;;;15192878;23;20321;-36
2023/01/23 15:53:57;;;;;;;30.13;16.60;;;1.80;99.90;;;;;;15163578;23;20036;-36
2023/01/23 16:00:00;;;;;;;33.00;16.48;;;1.70;99.90;;;;;;15193335;23;20029;-36
2023/01/23 16:06:02;;;;;;;33.22;15.68;;;1.70;99.90;;;;;;15191383;23;20157;-37
2023/01/23 16:12:10;;;;;;;;;;;1.70;99.90;;;;;;15176895;23;20097;-37
2023/01/23 16:18:12;;;;;;;;;;;1.70;99.90;;;;;;15199277;23;19952;-36
2023/01/23 16:24:21;;;;;;;28.33;14.68;;;1.70;99.90;;;;;;15196480;23;19917;-37
2023/01/23 16:30:26;;;;;;;32.42;16.05;;;1.70;99.90;;;;;;15198627;23;20018;-37
2023/01/23 16:36:28;;;;;;;35.83;17.25;;;1.60;99.90;;;;;;15200240;23;20073;-37
2023/01/23 16:42:31;;;;;;;39.38;16.35;;;1.60;99.90;;;;;;15198954;23;20339;-37
2023/01/23 16:48:33;;;;;;;35.58;17.45;;;1.70;99.90;;;;;;15197205;23;20038;-36
2023/01/23 16:54:35;;;;;;;37.90;18.35;;;1.70;99.90;;;;;;15199786;23;20092;-37
2023/01/23 17:00:37;;;;;;;34.60;17.92;;;1.70;99.90;;;;;;15177569;23;20022;-37
2023/01/23 17:06:39;;;;;;;37.95;18.45;;;1.60;99.90;;;;;;15201279;23;20026;-37
2023/01/23 17:12:43;;;;;;;37.65;18.33;;;1.70;99.90;;;;;;15204200;23;20117;-37
2023/01/23 17:18:44;;;;;;;34.70;17.00;;;1.70;99.90;;;;;;15197689;23;20065;-36
2023/01/23 17:24:47;;;;;;;38.45;17.38;;;1.70;99.90;;;;;;15199936;23;20043;-36
2023/01/23 17:30:51;;;;;;;34.60;17.42;;;1.60;99.90;;;;;;15201625;23;20093;-36
2023/01/23 17:36:55;;;;;;;35.13;17.65;;;1.60;99.90;;;;;;15173704;23;20037;-36
2023/01/23 17:42:57;;;;;;;35.13;18.10;;;1.70;99.90;;;;;;15199286;23;20025;-36
2023/01/23 17:48:59;;;;;;;26.20;14.90;;;1.60;99.90;;;;;;15197260;23;20049;-36
2023/01/23 17:55:01;;;;;;;28.42;14.75;;;1.60;99.90;;;;;;15193944;23;20033;-37
2023/01/23 18:01:05;;;;;;;26.50;14.38;;;1.60;99.90;;;;;;15176142;23;20036;-37
2023/01/23 18:07:09;;;;;;;25.50;14.10;;;1.60;99.90;;;;;;15171164;23;20033;-37
2023/01/23 18:13:52;;;;;;;24.08;13.27;;;1.60;99.90;;;;;;15202755;23;20025;-36
2023/01/23 18:19:54;;;;;;;26.45;14.15;;;1.60;99.90;;;;;;15139844;23;20030;-37
2023/01/23 18:26:27;;;;;;;28.10;14.63;;;1.60;99.90;;;;;;15198409;23;20455;-37
2023/01/23 18:32:47;;;;;;;27.30;13.60;;;1.60;99.90;;;;;;15173496;23;20026;-36
2023/01/23 18:39:19;;;;;;;25.30;14.10;;;1.60;99.90;;;;;;15195258;23;20074;-37
2023/01/23 18:45:22;;;;;;;28.42;14.73;;;1.60;99.90;;;;;;15197949;23;20478;-36
2023/01/23 18:51:31;;;;;;;28.45;15.48;;;1.60;99.90;;;;;;15196805;23;20024;-36
2023/01/23 18:57:46;;;;;;;30.30;14.20;;;1.60;99.90;;;;;;15174224;23;20157;-37
2023/01/23 19:03:49;;;;;;;25.50;13.63;;;1.60;99.90;;;;;;15200907;23;20138;-37
2023/01/23 19:09:51;;;;;;;29.25;15.10;;;1.60;99.90;;;;;;15195813;23;20503;-36
2023/01/23 19:16:14;;;;;;;30.15;16.10;;;1.60;99.90;;;;;;15194942;23;20172;-36
2023/01/23 19:22:18;;;;;;;30.55;15.32;;;1.60;99.90;;;;;;15202715;23;20054;-37
2023/01/23 19:28:20;;;;;;;29.58;15.10;;;1.60;99.90;;;;;;15198288;23;20499;-36
2023/01/23 19:34:23;;;;;;;34.33;15.70;;;1.60;99.90;;;;;;15196025;23;20105;-38
2023/01/23 19:40:25;;;;;;;36.42;16.42;;;1.60;99.90;;;;;;15200122;23;20026;-37
2023/01/23 19:46:29;;;;;;;32.58;16.83;;;1.60;99.90;;;;;;15198010;23;20455;-36
2023/01/23 19:52:31;;;;;;;34.22;16.55;;;1.60;99.90;;;;;;15194397;23;20022;-36
2023/01/23 19:58:33;;;;;;;34.20;17.38;;;1.60;99.90;;;;;;15193741;23;20417;-36
2023/01/23 20:04:35;;;;;;;37.20;18.05;;;1.70;99.90;;;;;;15198438;23;20105;-36
2023/01/23 20:10:37;;;;;;;35.47;18.05;;;1.70;99.90;;;;;;15173903;23;20041;-36
2023/01/23 20:16:41;;;;;;;38.67;18.85;;;1.60;99.90;;;;;;15195835;23;20030;-37
2023/01/23 20:22:44;;;;;;;40.92;18.65;;;1.70;99.90;;;;;;15199555;23;20025;-37
2023/01/23 20:28:48;;;;;;;42.28;18.80;;;1.60;99.90;;;;;;15195338;23;20475;-36
2023/01/23 20:34:52;;;;;;;38.38;17.83;;;1.60;99.90;;;;;;15195525;23;20454;-36
2023/01/23 20:41:00;;;;;;;38.55;17.85;;;1.70;99.90;;;;;;15195516;23;20065;-37
2023/01/23 20:47:02;;;;;;;34.05;17.08;;;1.70;99.90;;;;;;15196782;23;20538;-36
2023/01/23 20:59:25;;;;;;;39.08;17.45;;;1.70;99.90;;;;;;15197384;23;20478;-36
2023/01/23 21:05:26;;;;;;;37.45;17.52;;;1.60;99.90;;;;;;15181111;23;20485;-36
2023/01/23 21:11:28;;;;;;;35.17;17.38;;;1.70;99.90;;;;;;15196717;23;20026;-36
2023/01/23 21:17:30;;;;;;;36.67;16.75;;;1.60;99.90;;;;;;15193620;23;20109;-36
2023/01/23 21:23:33;;;;;;;37.05;16.27;;;1.70;99.90;;;;;;15194618;23;20050;-36
2023/01/23 21:29:37;;;;;;;38.80;18.30;;;1.60;99.90;;;;;;15176463;23;20026;-36
2023/01/23 21:35:39;;;;;;;36.63;15.27;;;1.60;99.90;;;;;;15195889;23;20101;-36
2023/01/23 21:41:41;;;;;;;35.08;15.85;;;1.60;99.90;;;;;;15187693;23;20101;-36
2023/01/23 21:47:43;;;;;;;38.58;17.10;;;1.60;99.90;;;;;;15202619;23;20021;-36
2023/01/23 21:53:47;;;;;;;34.72;15.13;;;1.60;99.90;;;;;;15198727;23;20054;-36
2023/01/23 22:06:09;;;;;;;37.65;16.80;;;1.50;99.90;;;;;;15201900;23;20447;-36
2023/01/23 22:12:11;;;;;;;32.88;15.23;;;1.50;99.90;;;;;;15205901;23;20018;-36
2023/01/23 22:18:13;;;;;;;36.63;16.50;;;1.60;99.90;;;;;;15194449;23;20189;-36
2023/01/23 22:24:15;;;;;;;37.97;16.20;;;1.60;99.90;;;;;;15204370;23;20057;-36
2023/01/23 22:30:17;;;;;;;38.42;16.35;;;1.60;99.90;;;;;;15199101;23;20045;-36
2023/01/23 22:36:19;;;;;;;36.30;16.83;;;1.60;99.90;;;;;;15203470;23;20108;-36
2023/01/23 22:42:21;;;;;;;30.38;14.05;;;1.60;99.90;;;;;;15190485;23;20109;-36
2023/01/23 22:48:22;;;;;;;34.80;15.88;;;1.50;99.90;;;;;;15194837;23;20101;-36
2023/01/23 22:54:24;;;;;;;41.22;16.77;;;1.60;99.90;;;;;;15199789;23;20104;-36
2023/01/23 23:00:26;;;;;;;36.10;16.40;;;1.50;99.90;;;;;;15198310;23;20477;-36
2023/01/23 23:06:28;;;;;;;38.20;16.80;;;1.50;99.90;;;;;;15194099;23;20116;-36
2023/01/23 23:12:31;;;;;;;37.25;17.88;;;1.50;99.90;;;;;;15202871;23;20542;-36
2023/01/23 23:18:32;;;;;;;36.03;16.40;;;1.50;99.90;;;;;;15198420;23;20157;-37
2023/01/23 23:24:34;;;;;;;40.67;17.00;;;1.50;99.90;;;;;;15202788;23;20060;-36
2023/01/23 23:30:36;;;;;;;40.30;17.15;;;1.50;99.90;;;;;;15203126;23;20113;-36
2023/01/23 23:36:38;;;;;;;48.58;18.83;;;1.50;99.90;;;;;;15194107;23;20026;-36
2023/01/23 23:42:40;;;;;;;44.75;18.52;;;1.50;99.90;;;;;;15169006;23;20108;-35
2023/01/23 23:48:43;;;;;;;44.42;19.38;;;1.50;99.90;;;;;;15196751;23;20093;-36
2023/01/23 23:54:45;;;;;;;46.45;19.67;;;1.40;99.90;;;;;;15196439;23;20549;-36
